createdAt,value
2023-04-27T00:00:37.314Z,15.9
2023-04-27T00:01:37.318Z,20.3
2023-04-27T00:02:37.524Z,18.3
2023-04-27T00:03:37.469Z,21.5
2023-04-27T00:05:01.155Z,17.5
2023-04-27T00:05:50.628Z,12.6
2023-04-27T00:06:50.385Z,17.0
2023-04-27T00:07:50.380Z,14.1
2023-04-27T00:08:50.418Z,18.9
2023-04-27T00:09:50.412Z,14.9
2023-04-27T00:10:50.430Z,15.2
2023-04-27T00:11:50.395Z,18.0
2023-04-27T00:12:50.393Z,13.3
2023-04-27T00:13:50.421Z,12.7
2023-04-27T00:14:50.460Z,10.1
2023-04-27T00:15:50.689Z,11.8
2023-04-27T00:16:50.547Z,14.7
2023-04-27T00:17:50.593Z,11.4
2023-04-27T00:18:50.469Z,16.3
2023-04-27T00:19:50.447Z,14.9
2023-04-27T00:20:50.595Z,11.4
2023-04-27T00:21:50.453Z,13.5
2023-04-27T00:22:50.423Z,13.8
2023-04-27T00:23:50.612Z,12.8
2023-04-27T00:24:50.456Z,10.5
2023-04-27T00:25:50.375Z,14.3
2023-04-27T00:26:50.403Z,12.0
2023-04-27T00:27:50.774Z,15.4
2023-04-27T00:28:50.366Z,10.7
2023-04-27T00:29:50.528Z,14.0
2023-04-27T00:30:50.473Z,11.9
2023-04-27T00:31:50.342Z,12.4
2023-04-27T00:32:50.488Z,12.0
2023-04-27T00:33:50.302Z,10.9
2023-04-27T00:34:50.306Z,12.8
2023-04-27T00:35:50.328Z,11.2
2023-04-27T00:36:50.396Z,13.1
2023-04-27T00:37:50.693Z,11.0
2023-04-27T00:38:50.977Z,11.2
2023-04-27T00:39:50.360Z,11.8
2023-04-27T00:40:50.357Z,15.0
2023-04-27T00:41:50.503Z,14.3
2023-04-27T00:42:50.706Z,11.1
2023-04-27T00:43:50.313Z,12.8
2023-04-27T00:44:50.318Z,10.9
2023-04-27T00:45:50.301Z,11.7
2023-04-27T00:46:50.499Z,11.4
2023-04-27T00:47:50.385Z,12.2
2023-04-27T00:48:50.300Z,9.0
2023-04-27T00:49:50.444Z,15.6
2023-04-27T00:50:50.264Z,13.8
2023-04-27T00:51:53.817Z,12.3
2023-04-27T00:52:50.599Z,12.7
2023-04-27T00:53:50.306Z,12.4
2023-04-27T00:54:50.309Z,12.5
2023-04-27T00:55:50.308Z,15.3
2023-04-27T00:56:50.316Z,14.3
2023-04-27T00:57:50.270Z,14.4
2023-04-27T00:58:50.329Z,14.4
2023-04-27T00:59:50.313Z,13.0
2023-04-27T01:00:50.489Z,14.4
2023-04-27T01:01:50.311Z,15.1
2023-04-27T01:02:50.347Z,13.2
2023-04-27T01:03:50.688Z,12.7
2023-04-27T01:04:50.339Z,17.4
2023-04-27T01:05:50.272Z,16.4
2023-04-27T01:06:50.271Z,19.2
2023-04-27T01:07:50.278Z,15.2
2023-04-27T01:08:50.322Z,16.6
2023-04-27T01:09:50.311Z,15.1
2023-04-27T01:10:50.280Z,15.7
2023-04-27T01:11:50.394Z,14.8
2023-04-27T01:12:50.449Z,15.3
2023-04-27T01:13:50.263Z,15.5
2023-04-27T01:14:50.270Z,12.8
2023-04-27T01:18:50.751Z,18.9
2023-04-27T01:19:50.241Z,13.7
2023-04-27T01:20:55.327Z,19.9
2023-04-27T01:21:50.264Z,17.7
2023-04-27T01:23:50.460Z,12.5
2023-04-27T01:24:50.263Z,15.1
2023-04-27T01:25:50.273Z,13.5
2023-04-27T01:26:50.234Z,12.8
2023-04-27T01:27:50.273Z,12.9
2023-04-27T01:28:50.333Z,13.6
2023-04-27T01:29:50.242Z,13.8
2023-04-27T01:30:50.336Z,12.6
2023-04-27T01:31:50.189Z,12.4
2023-04-27T01:32:50.456Z,16.4
2023-04-27T01:33:50.242Z,11.9
2023-04-27T01:34:50.220Z,17.4
2023-04-27T01:35:50.333Z,13.6
2023-04-27T01:36:51.656Z,14.3
2023-04-27T01:37:50.277Z,14.0
2023-04-27T01:38:50.346Z,17.2
2023-04-27T01:39:50.165Z,13.6
2023-04-27T01:40:50.182Z,13.6
2023-04-27T01:41:50.218Z,15.8
2023-04-27T01:42:50.245Z,13.4
2023-04-27T01:43:50.234Z,13.0
2023-04-27T01:44:50.315Z,14.4
2023-04-27T01:45:50.337Z,14.2
2023-04-27T01:46:50.251Z,13.1
2023-04-27T01:47:50.234Z,12.5
2023-04-27T01:48:50.175Z,14.9
2023-04-27T01:49:50.171Z,11.3
2023-04-27T01:50:50.212Z,12.2
2023-04-27T01:51:50.198Z,15.9
2023-04-27T01:52:50.208Z,16.8
2023-04-27T01:53:50.166Z,14.2
2023-04-27T01:54:50.351Z,15.6
2023-04-27T01:56:50.155Z,18.4
2023-04-27T01:57:50.152Z,19.1
2023-04-27T01:58:50.274Z,14.9
2023-04-27T01:59:50.131Z,17.6
2023-04-27T02:00:50.193Z,18.3
2023-04-27T02:01:50.168Z,17.3
2023-04-27T02:02:50.260Z,16.1
2023-04-27T02:03:50.338Z,15.0
2023-04-27T02:05:50.365Z,15.6
2023-04-27T02:06:50.379Z,15.3
2023-04-27T02:08:00.482Z,17.7
2023-04-27T02:08:50.172Z,16.4
2023-04-27T02:09:50.181Z,15.9
2023-04-27T02:10:50.168Z,16.8
2023-04-27T02:11:50.159Z,17.0
2023-04-27T02:12:50.139Z,16.2
2023-04-27T02:13:50.148Z,15.6
2023-04-27T02:14:50.094Z,18.4
2023-04-27T02:15:50.124Z,20.1
2023-04-27T02:16:50.162Z,20.4
2023-04-27T02:17:50.162Z,14.5
2023-04-27T02:18:50.127Z,18.9
2023-04-27T02:19:50.135Z,15.4
2023-04-27T02:20:50.100Z,16.9
2023-04-27T02:21:50.140Z,16.4
2023-04-27T02:22:50.165Z,14.6
2023-04-27T02:23:50.107Z,15.4
2023-04-27T02:24:50.132Z,17.3
2023-04-27T02:25:50.109Z,16.2
2023-04-27T02:26:50.109Z,14.8
2023-04-27T02:27:50.192Z,14.4
2023-04-27T02:28:50.329Z,21.4
2023-04-27T02:29:50.113Z,17.6
2023-04-27T02:30:50.063Z,18.5
2023-04-27T02:31:50.127Z,15.3
2023-04-27T02:32:50.174Z,16.5
2023-04-27T02:33:50.194Z,14.6
2023-04-27T02:34:50.113Z,14.9
2023-04-27T02:35:50.115Z,15.3
2023-04-27T02:36:50.111Z,16.2
2023-04-27T02:37:50.090Z,15.4
2023-04-27T02:38:50.108Z,17.5
2023-04-27T02:39:50.231Z,14.3
2023-04-27T02:40:50.118Z,23.1
2023-04-27T02:41:50.092Z,14.7
2023-04-27T02:42:50.089Z,14.8
2023-04-27T02:43:50.103Z,20.6
2023-04-27T02:44:50.123Z,13.0
2023-04-27T02:45:50.109Z,17.7
2023-04-27T02:46:50.184Z,20.9
2023-04-27T02:47:50.159Z,14.5
2023-04-27T02:48:50.085Z,19.6
2023-04-27T02:49:50.050Z,21.7
2023-04-27T02:50:50.217Z,21.3
2023-04-27T02:52:15.866Z,16.6
2023-04-27T02:52:50.080Z,18.2
2023-04-27T02:53:50.063Z,21.7
2023-04-27T02:54:57.818Z,20.0
2023-04-27T02:55:50.139Z,17.6
2023-04-27T02:56:50.074Z,15.8
2023-04-27T02:57:50.087Z,14.8
2023-04-27T02:58:50.024Z,15.9
2023-04-27T02:59:50.034Z,17.8
2023-04-27T03:00:50.071Z,17.9
2023-04-27T03:01:50.084Z,16.2
2023-04-27T03:02:50.144Z,17.2
2023-04-27T03:03:50.264Z,17.1
2023-04-27T03:04:50.122Z,17.3
2023-04-27T03:05:50.021Z,21.7
2023-04-27T03:06:50.066Z,22.4
2023-04-27T03:07:50.036Z,22.7
2023-04-27T03:08:50.301Z,31.1
2023-04-27T03:09:50.127Z,38.6
2023-04-27T03:10:50.049Z,39.4
2023-04-27T03:11:52.211Z,41.2
2023-04-27T03:12:50.221Z,43.0
2023-04-27T03:13:50.059Z,37.0
2023-04-27T03:14:50.044Z,38.1
2023-04-27T03:15:49.975Z,40.7
2023-04-27T03:16:50.085Z,29.6
2023-04-27T03:17:50.040Z,33.0
2023-04-27T03:18:50.300Z,28.9
2023-04-27T03:19:50.014Z,25.3
2023-04-27T03:20:50.013Z,25.8
2023-04-27T03:21:50.050Z,22.9
2023-04-27T03:22:50.004Z,25.1
2023-04-27T03:24:50.042Z,26.9
2023-04-27T03:25:50.062Z,22.1
2023-04-27T03:26:50.012Z,21.1
2023-04-27T03:27:49.990Z,20.3
2023-04-27T03:28:50.017Z,20.5
2023-04-27T03:29:50.074Z,20.1
2023-04-27T03:30:50.128Z,23.1
2023-04-27T03:31:50.077Z,18.6
2023-04-27T03:32:50.011Z,19.1
2023-04-27T03:33:49.976Z,17.1
2023-04-27T03:35:50.075Z,16.1
2023-04-27T03:36:50.041Z,19.2
2023-04-27T03:37:50.049Z,20.9
2023-04-27T03:38:49.971Z,14.9
2023-04-27T03:39:49.971Z,21.1
2023-04-27T03:40:49.972Z,19.0
2023-04-27T03:41:49.954Z,18.5
2023-04-27T03:42:49.987Z,16.7
2023-04-27T03:43:50.011Z,20.1
2023-04-27T03:44:49.980Z,21.8
2023-04-27T03:45:49.984Z,23.6
2023-04-27T03:46:50.055Z,20.6
2023-04-27T03:47:49.974Z,21.2
2023-04-27T03:48:49.955Z,22.7
2023-04-27T03:49:49.963Z,21.1
2023-04-27T03:50:49.978Z,22.5
2023-04-27T03:51:49.931Z,22.7
2023-04-27T03:52:49.979Z,24.1
2023-04-27T03:53:49.982Z,20.5
2023-04-27T03:54:49.934Z,18.6
2023-04-27T03:55:49.952Z,16.9
2023-04-27T03:56:50.105Z,17.5
2023-04-27T03:57:49.983Z,21.4
2023-04-27T03:58:49.965Z,21.0
2023-04-27T03:59:49.951Z,17.1
2023-04-27T04:00:49.937Z,22.0
2023-04-27T04:01:49.966Z,22.2
2023-04-27T04:02:50.212Z,26.0
2023-04-27T04:03:50.093Z,25.4
2023-04-27T04:04:49.975Z,22.8
2023-04-27T04:05:49.922Z,23.0
2023-04-27T04:06:49.942Z,23.7
2023-04-27T04:07:50.054Z,27.7
2023-04-27T04:08:49.941Z,25.9
2023-04-27T04:09:49.968Z,25.6
2023-04-27T04:10:49.947Z,25.4
2023-04-27T04:11:49.940Z,24.0
2023-04-27T04:12:49.942Z,25.6
2023-04-27T04:13:49.964Z,25.2
2023-04-27T04:14:49.951Z,26.5
2023-04-27T04:15:50.885Z,25.0
2023-04-27T04:16:49.911Z,25.6
2023-04-27T04:17:49.939Z,24.3
2023-04-27T04:18:50.085Z,23.2
2023-04-27T04:19:49.924Z,22.1
2023-04-27T04:20:49.916Z,24.0
2023-04-27T04:21:49.951Z,19.3
2023-04-27T04:22:49.904Z,22.4
2023-04-27T04:23:50.036Z,19.9
2023-04-27T04:24:49.898Z,23.0
2023-04-27T04:25:49.883Z,18.6
2023-04-27T04:26:49.913Z,27.6
2023-04-27T04:27:49.913Z,23.6
2023-04-27T04:28:49.998Z,19.7
2023-04-27T04:29:50.083Z,21.5
2023-04-27T04:30:49.898Z,21.8
2023-04-27T04:31:50.019Z,24.3
2023-04-27T04:32:49.913Z,20.9
2023-04-27T04:33:49.900Z,20.8
2023-04-27T04:34:49.931Z,22.6
2023-04-27T04:35:49.933Z,22.1
2023-04-27T04:36:49.884Z,23.4
2023-04-27T04:37:49.849Z,24.5
2023-04-27T04:38:49.922Z,20.8
2023-04-27T04:39:49.842Z,22.4
2023-04-27T04:40:50.070Z,24.9
2023-04-27T04:41:49.846Z,22.3
2023-04-27T04:45:49.905Z,20.8
2023-04-27T04:46:49.962Z,18.1
2023-04-27T04:47:49.895Z,23.6
2023-04-27T04:48:49.889Z,23.4
2023-04-27T04:49:49.798Z,20.1
2023-04-27T04:50:49.851Z,31.7
2023-04-27T04:51:50.035Z,20.6
2023-04-27T04:52:49.859Z,22.8
2023-04-27T04:53:49.868Z,27.9
2023-04-27T04:54:49.822Z,25.1
2023-04-27T04:55:49.831Z,19.5
2023-04-27T04:56:49.847Z,21.1
2023-04-27T04:57:49.850Z,22.7
2023-04-27T04:58:49.873Z,21.7
2023-04-27T04:59:49.853Z,19.2
2023-04-27T05:00:49.816Z,20.2
2023-04-27T05:02:50.274Z,20.2
2023-04-27T05:04:50.208Z,25.7
2023-04-27T05:05:49.918Z,23.7
2023-04-27T05:06:50.226Z,20.9
2023-04-27T05:07:49.797Z,18.8
2023-04-27T05:08:49.807Z,16.5
2023-04-27T05:09:50.165Z,19.1
2023-04-27T05:10:49.805Z,17.8
2023-04-27T05:11:49.811Z,18.6
2023-04-27T05:12:49.832Z,18.8
2023-04-27T05:13:49.849Z,17.9
2023-04-27T05:14:49.744Z,15.9
2023-04-27T05:15:49.874Z,18.3
2023-04-27T05:16:49.766Z,18.8
2023-04-27T05:17:49.861Z,19.4
2023-04-27T05:18:49.798Z,21.3
2023-04-27T05:19:49.847Z,18.3
2023-04-27T05:20:49.781Z,21.1
2023-04-27T05:21:49.800Z,18.7
2023-04-27T05:22:49.777Z,26.2
2023-04-27T05:23:49.893Z,19.6
2023-04-27T05:24:49.758Z,20.8
2023-04-27T05:25:49.943Z,16.8
2023-04-27T05:26:49.799Z,19.2
2023-04-27T05:27:49.800Z,13.9
2023-04-27T05:28:49.793Z,18.8
2023-04-27T05:29:49.766Z,22.4
2023-04-27T05:30:49.816Z,16.2
2023-04-27T05:31:49.849Z,18.1
2023-04-27T05:32:49.840Z,17.4
2023-04-27T05:33:49.805Z,16.7
2023-04-27T05:34:49.809Z,20.3
2023-04-27T05:35:49.766Z,18.0
2023-04-27T05:36:49.951Z,23.6
2023-04-27T05:37:49.795Z,15.7
2023-04-27T05:38:49.736Z,14.5
2023-04-27T05:39:49.833Z,16.3
2023-04-27T05:40:49.778Z,18.4
2023-04-27T05:41:49.754Z,19.7
2023-04-27T05:42:49.731Z,17.3
2023-04-27T05:43:49.814Z,22.2
2023-04-27T05:44:49.881Z,20.1
2023-04-27T05:45:49.755Z,17.4
2023-04-27T05:46:49.768Z,17.7
2023-04-27T05:47:49.918Z,19.0
2023-04-27T05:48:49.778Z,16.8
2023-04-27T05:49:49.767Z,19.9
2023-04-27T05:50:49.764Z,20.8
2023-04-27T05:51:49.757Z,15.9
2023-04-27T05:52:49.723Z,17.4
2023-04-27T05:53:49.775Z,19.4
2023-04-27T05:54:49.755Z,15.6
2023-04-27T05:55:49.764Z,19.3
2023-04-27T05:56:49.730Z,20.2
2023-04-27T05:57:57.301Z,16.4
2023-04-27T05:58:49.963Z,13.4
2023-04-27T05:59:49.749Z,20.4
2023-04-27T06:00:49.725Z,17.3
2023-04-27T06:01:49.768Z,16.9
2023-04-27T06:02:49.789Z,15.9
2023-04-27T06:03:49.864Z,14.9
2023-04-27T06:06:04.381Z,16.2
2023-04-27T06:07:04.241Z,17.9
2023-04-27T06:08:03.804Z,16.4
2023-04-27T06:09:04.294Z,17.9
2023-04-27T06:10:03.754Z,17.1
2023-04-27T06:11:04.056Z,20.3
2023-04-27T06:12:03.778Z,14.0
2023-04-27T06:13:03.845Z,17.2
2023-04-27T06:14:03.871Z,14.5
2023-04-27T06:15:03.900Z,16.5
2023-04-27T06:16:03.989Z,18.6
2023-04-27T06:17:03.979Z,15.3
2023-04-27T06:18:03.992Z,21.2
2023-04-27T06:19:03.929Z,17.7
2023-04-27T06:20:03.956Z,17.4
2023-04-27T06:21:03.985Z,16.5
2023-04-27T06:22:03.832Z,16.0
2023-04-27T06:23:03.779Z,17.8
2023-04-27T06:24:04.345Z,14.7
2023-04-27T06:25:03.871Z,15.9
2023-04-27T06:26:04.833Z,19.9
2023-04-27T06:27:03.724Z,15.7
2023-04-27T06:28:03.740Z,18.2
2023-04-27T06:29:03.976Z,14.6
2023-04-27T06:30:03.760Z,13.2
2023-04-27T06:33:03.801Z,14.9
2023-04-27T06:34:03.823Z,14.5
2023-04-27T06:35:03.807Z,14.6
2023-04-27T06:36:03.906Z,18.8
2023-04-27T06:37:03.858Z,17.8
2023-04-27T06:38:06.687Z,19.1
2023-04-27T06:39:03.775Z,12.1
2023-04-27T06:40:03.879Z,12.8
2023-04-27T06:41:03.690Z,14.0
2023-04-27T06:42:03.807Z,13.0
2023-04-27T06:43:03.676Z,12.2
2023-04-27T06:44:03.821Z,12.3
2023-04-27T06:45:03.672Z,12.5
2023-04-27T06:46:03.741Z,11.1
2023-04-27T06:47:03.671Z,13.1
2023-04-27T06:48:03.941Z,14.5
2023-04-27T06:49:03.949Z,12.2
2023-04-27T06:50:04.012Z,12.4
2023-04-27T06:51:07.929Z,16.4
2023-04-27T06:52:05.692Z,11.6
2023-04-27T06:53:03.901Z,15.9
2023-04-27T06:54:04.396Z,12.6
2023-04-27T06:55:03.992Z,13.1
2023-04-27T06:56:03.729Z,13.6
2023-04-27T06:57:04.753Z,14.1
2023-04-27T06:58:03.729Z,12.1
2023-04-27T06:59:03.696Z,13.1
2023-04-27T07:00:03.634Z,9.9
2023-04-27T07:01:03.872Z,10.0
2023-04-27T07:02:03.622Z,12.0
2023-04-27T07:03:04.008Z,11.2
2023-04-27T07:04:04.585Z,11.4
2023-04-27T07:05:03.948Z,10.7
2023-04-27T07:06:03.779Z,11.4
2023-04-27T07:07:04.168Z,10.2
2023-04-27T07:08:14.093Z,9.2
2023-04-27T07:09:10.448Z,8.7
2023-04-27T07:10:03.902Z,11.4
2023-04-27T07:11:03.956Z,9.2
2023-04-27T07:12:03.714Z,6.9
2023-04-27T07:13:03.755Z,11.8
2023-04-27T07:14:03.855Z,10.6
2023-04-27T07:15:03.657Z,11.8
2023-04-27T07:16:03.649Z,7.3
2023-04-27T07:17:03.854Z,7.5
2023-04-27T07:18:03.959Z,9.7
2023-04-27T07:20:03.603Z,8.9
2023-04-27T07:21:03.706Z,8.7
2023-04-27T07:22:04.275Z,9.9
2023-04-27T07:23:03.918Z,9.3
2023-04-27T07:24:03.642Z,9.6
2023-04-27T07:25:03.720Z,9.7
2023-04-27T07:26:03.582Z,10.5
2023-04-27T07:27:03.660Z,8.0
2023-04-27T07:28:03.620Z,9.5
2023-04-27T07:29:11.069Z,11.3
2023-04-27T07:30:03.611Z,9.5
2023-04-27T07:31:03.734Z,10.4
2023-04-27T07:32:04.254Z,9.7
2023-04-27T07:33:03.901Z,10.8
2023-04-27T07:34:03.768Z,9.2
2023-04-27T07:35:03.631Z,13.4
2023-04-27T07:36:03.821Z,13.0
2023-04-27T07:37:03.767Z,9.4
2023-04-27T07:38:03.756Z,11.2
2023-04-27T07:39:03.683Z,10.4
2023-04-27T07:40:03.564Z,11.1
2023-04-27T07:41:13.771Z,12.2
2023-04-27T07:42:03.609Z,10.3
2023-04-27T07:43:03.674Z,9.3
2023-04-27T07:45:29.878Z,9.0
2023-04-27T07:46:29.868Z,7.2
2023-04-27T07:47:29.865Z,8.1
2023-04-27T07:48:29.877Z,6.8
2023-04-27T07:49:29.810Z,11.3
2023-04-27T07:50:29.833Z,9.2
2023-04-27T07:51:29.850Z,6.9
2023-04-27T07:52:29.850Z,8.0
2023-04-27T07:53:29.866Z,7.4
2023-04-27T07:54:29.786Z,7.1
2023-04-27T07:55:29.846Z,7.2
2023-04-27T07:56:29.800Z,11.0
2023-04-27T07:57:29.941Z,10.1
2023-04-27T07:58:29.819Z,9.8
2023-04-27T07:59:29.736Z,7.6
2023-04-27T08:00:29.825Z,7.4
2023-04-27T08:01:29.870Z,9.7
2023-04-27T08:02:29.868Z,11.0
2023-04-27T08:03:30.079Z,9.4
2023-04-27T08:04:30.070Z,7.9
2023-04-27T08:05:30.633Z,6.3
2023-04-27T08:06:30.839Z,8.6
2023-04-27T08:07:30.238Z,9.6
2023-04-27T08:08:29.769Z,12.9
2023-04-27T08:09:29.791Z,10.2
2023-04-27T08:10:29.930Z,9.1
2023-04-27T08:16:29.896Z,8.8
2023-04-27T08:17:29.764Z,8.2
2023-04-27T08:18:29.829Z,9.9
2023-04-27T08:19:29.747Z,7.1
2023-04-27T08:20:29.766Z,7.1
2023-04-27T08:21:29.927Z,9.1
2023-04-27T08:22:29.740Z,10.3
2023-04-27T08:23:29.872Z,9.7
2023-04-27T08:24:29.793Z,9.1
2023-04-27T08:25:29.836Z,8.0
2023-04-27T08:26:29.923Z,8.7
2023-04-27T08:27:29.755Z,7.8
2023-04-27T08:28:29.721Z,10.2
2023-04-27T08:29:29.788Z,7.7
2023-04-27T08:30:29.747Z,13.3
2023-04-27T08:31:29.800Z,7.7
2023-04-27T08:32:29.758Z,8.3
2023-04-27T08:33:29.758Z,12.0
2023-04-27T08:34:29.743Z,10.5
2023-04-27T08:35:29.745Z,8.6
2023-04-27T08:36:29.766Z,7.4
2023-04-27T08:37:29.993Z,10.4
2023-04-27T08:38:29.903Z,9.1
2023-04-27T08:39:29.669Z,10.4
2023-04-27T08:40:29.780Z,8.9
2023-04-27T08:41:29.706Z,5.7
2023-04-27T08:42:29.801Z,10.2
2023-04-27T08:43:29.783Z,8.3
2023-04-27T08:44:29.699Z,6.6
2023-04-27T08:45:29.720Z,6.0
2023-04-27T08:46:29.778Z,7.1
2023-04-27T08:47:41.773Z,6.9
2023-04-27T08:48:29.771Z,6.6
2023-04-27T08:49:29.672Z,6.6
2023-04-27T08:50:29.908Z,7.8
2023-04-27T08:51:29.681Z,5.6
2023-04-27T08:52:29.667Z,5.5
2023-04-27T08:53:29.738Z,6.4
2023-04-27T08:54:29.705Z,11.9
2023-04-27T08:56:29.734Z,10.5
2023-04-27T08:57:29.658Z,8.7
2023-04-27T08:58:29.699Z,7.0
2023-04-27T08:59:29.867Z,5.7
2023-04-27T09:00:29.779Z,8.9
2023-04-27T09:03:29.931Z,10.3
2023-04-27T09:04:29.782Z,11.1
2023-04-27T09:05:29.643Z,14.4
2023-04-27T09:06:29.753Z,11.4
2023-04-27T09:07:29.690Z,11.8
2023-04-27T09:08:29.726Z,9.8
2023-04-27T09:09:29.690Z,5.8
2023-04-27T09:10:29.875Z,7.6
2023-04-27T09:11:29.671Z,11.5
2023-04-27T09:12:29.675Z,10.3
2023-04-27T09:13:29.702Z,10.0
2023-04-27T09:19:29.760Z,9.5
2023-04-27T09:20:29.641Z,7.2
2023-04-27T09:21:29.777Z,7.8
2023-04-27T09:22:29.691Z,11.7
2023-04-27T09:23:29.677Z,16.5
2023-04-27T09:24:29.632Z,23.8
2023-04-27T09:25:29.905Z,11.3
2023-04-27T09:26:29.624Z,10.1
2023-04-27T09:27:29.731Z,8.9
2023-04-27T09:28:29.653Z,7.4
2023-04-27T09:29:29.637Z,6.4
2023-04-27T09:30:29.726Z,11.6
2023-04-27T09:31:29.633Z,7.6
2023-04-27T09:32:29.630Z,9.0
2023-04-27T09:33:29.886Z,6.8
2023-04-27T09:34:29.632Z,12.3
2023-04-27T09:35:29.705Z,6.7
2023-04-27T09:36:29.628Z,10.5
2023-04-27T09:37:52.656Z,8.0
2023-04-27T09:38:29.642Z,6.4
2023-04-27T09:39:29.625Z,9.9
2023-04-27T09:40:43.445Z,6.6
2023-04-27T09:41:49.776Z,8.4
2023-04-27T09:42:29.627Z,9.4
2023-04-27T09:43:29.704Z,16.9
2023-04-27T09:44:29.938Z,6.7
2023-04-27T09:45:29.606Z,7.3
2023-04-27T09:46:29.819Z,12.8
2023-04-27T09:47:29.661Z,8.2
2023-04-27T09:48:29.619Z,8.4
2023-04-27T09:49:29.654Z,11.0
2023-04-27T09:50:29.622Z,6.4
2023-04-27T09:51:29.634Z,7.8
2023-04-27T09:52:29.592Z,5.7
2023-04-27T09:53:29.608Z,9.2
2023-04-27T09:54:29.566Z,5.1
2023-04-27T09:55:29.628Z,5.5
2023-04-27T09:56:29.620Z,6.3
2023-04-27T09:57:29.656Z,6.4
2023-04-27T09:58:29.603Z,7.4
2023-04-27T09:59:29.597Z,11.2
2023-04-27T10:00:30.629Z,9.1
2023-04-27T10:01:29.628Z,7.4
2023-04-27T10:02:29.796Z,8.5
2023-04-27T10:03:39.349Z,7.0
2023-04-27T10:04:29.706Z,5.9
2023-04-27T10:05:29.603Z,7.6
2023-04-27T10:06:29.550Z,6.8
2023-04-27T10:07:29.591Z,12.7
2023-04-27T10:08:29.579Z,11.6
2023-04-27T10:09:29.622Z,7.8
2023-04-27T10:10:29.550Z,9.3
2023-04-27T10:11:29.575Z,17.4
2023-04-27T10:12:29.549Z,9.8
2023-04-27T10:13:29.601Z,10.8
2023-04-27T10:14:29.574Z,7.1
2023-04-27T10:15:29.591Z,9.4
2023-04-27T10:16:29.718Z,8.8
2023-04-27T10:17:29.617Z,5.7
2023-04-27T10:18:40.144Z,8.9
2023-04-27T10:19:29.599Z,10.8
2023-04-27T10:20:29.547Z,10.0
2023-04-27T10:21:29.557Z,15.8
2023-04-27T10:22:29.540Z,15.2
2023-04-27T10:23:29.600Z,40.5
2023-04-27T10:24:29.497Z,17.2
2023-04-27T10:25:29.590Z,25.4
2023-04-27T10:26:29.519Z,57.8
2023-04-27T10:27:29.854Z,47.2
2023-04-27T10:28:29.542Z,30.3
2023-04-27T10:29:29.548Z,23.2
2023-04-27T10:30:29.614Z,17.9
2023-04-27T10:31:29.688Z,7.8
2023-04-27T10:32:29.592Z,6.8
2023-04-27T10:33:29.520Z,5.7
2023-04-27T10:35:29.577Z,9.2
2023-04-27T10:36:41.358Z,10.4
2023-04-27T10:37:29.555Z,8.6
2023-04-27T10:38:29.679Z,6.0
2023-04-27T10:39:40.010Z,8.1
2023-04-27T10:40:29.526Z,12.8
2023-04-27T10:41:29.514Z,7.2
2023-04-27T10:42:29.768Z,9.6
2023-04-27T10:43:29.538Z,5.9
2023-04-27T10:44:29.519Z,7.6
2023-04-27T10:45:31.589Z,6.8
2023-04-27T10:46:29.553Z,5.1
2023-04-27T10:47:29.541Z,6.4
2023-04-27T10:48:29.505Z,18.1
2023-04-27T10:49:29.694Z,14.5
2023-04-27T10:50:29.556Z,7.3
2023-04-27T10:51:42.578Z,6.8
2023-04-27T10:52:29.539Z,6.7
2023-04-27T10:53:29.454Z,6.7
2023-04-27T10:54:29.546Z,8.9
2023-04-27T10:55:39.815Z,8.8
2023-04-27T10:56:29.493Z,24.5
2023-04-27T11:03:29.619Z,16.7
2023-04-27T11:04:29.554Z,9.8
2023-04-27T11:05:29.561Z,16.0
2023-04-27T11:06:29.540Z,11.7
2023-04-27T11:07:29.527Z,7.2
2023-04-27T11:08:29.481Z,9.2
2023-04-27T11:09:29.576Z,7.4
2023-04-27T11:10:29.683Z,9.5
2023-04-27T11:11:29.521Z,9.7
2023-04-27T11:12:29.484Z,9.4
2023-04-27T11:13:29.757Z,15.2
2023-04-27T11:14:29.486Z,10.1
2023-04-27T11:15:29.500Z,10.5
2023-04-27T11:17:29.562Z,8.0
2023-04-27T11:18:29.477Z,22.2
2023-04-27T11:21:29.471Z,19.5
2023-04-27T11:25:29.673Z,42.2
2023-04-27T11:26:29.470Z,6.3
2023-04-27T11:27:29.458Z,18.9
2023-04-27T11:28:29.491Z,28.0
2023-04-27T11:29:29.473Z,9.4
2023-04-27T11:30:29.547Z,8.8
2023-04-27T11:31:29.507Z,13.2
2023-04-27T11:32:29.476Z,11.4
2023-04-27T11:33:29.418Z,7.7
2023-04-27T11:34:29.469Z,7.8
2023-04-27T11:35:29.453Z,10.0
2023-04-27T11:36:29.416Z,5.8
2023-04-27T11:37:29.462Z,7.9
2023-04-27T11:38:29.440Z,15.5
2023-04-27T11:39:29.918Z,10.5
2023-04-27T11:40:29.466Z,12.2
2023-04-27T11:41:29.740Z,10.5
2023-04-27T11:42:29.496Z,7.7
2023-04-27T11:43:29.441Z,11.2
2023-04-27T11:44:29.482Z,9.5
2023-04-27T11:45:29.427Z,12.4
2023-04-27T11:46:29.590Z,7.7
2023-04-27T11:47:29.490Z,6.1
2023-04-27T11:48:29.434Z,10.1
2023-04-27T11:49:29.386Z,8.1
2023-04-27T11:50:29.385Z,8.3
2023-04-27T11:51:29.417Z,14.9
2023-04-27T11:52:29.488Z,13.6
2023-04-27T11:53:29.438Z,7.9
2023-04-27T11:54:29.424Z,8.8
2023-04-27T11:55:29.480Z,7.4
2023-04-27T11:56:29.435Z,8.7
2023-04-27T11:57:29.751Z,8.9
2023-04-27T11:58:29.561Z,8.5
2023-04-27T11:59:29.428Z,9.7
2023-04-27T12:00:29.466Z,12.6
2023-04-27T12:01:37.563Z,8.6
2023-04-27T12:02:29.609Z,10.2
2023-04-27T12:03:29.937Z,10.0
2023-04-27T12:04:29.558Z,9.2
2023-04-27T12:05:30.552Z,9.2
2023-04-27T12:06:33.271Z,9.0
2023-04-27T12:07:29.362Z,8.0
2023-04-27T12:08:29.389Z,8.4
2023-04-27T12:09:29.400Z,10.8
2023-04-27T12:10:29.381Z,9.4
2023-04-27T12:12:29.363Z,14.0
2023-04-27T12:13:29.384Z,7.6
2023-04-27T12:14:29.522Z,9.5
2023-04-27T12:15:36.367Z,9.2
2023-04-27T12:16:29.414Z,12.5
2023-04-27T12:17:29.533Z,8.2
2023-04-27T12:18:29.364Z,12.5
2023-04-27T12:19:29.507Z,11.0
2023-04-27T12:20:29.401Z,11.1
2023-04-27T12:21:29.352Z,9.5
2023-04-27T12:22:29.334Z,11.3
2023-04-27T12:23:29.334Z,9.1
2023-04-27T12:24:29.416Z,10.3
2023-04-27T12:25:29.385Z,12.7
2023-04-27T12:26:29.406Z,10.8
2023-04-27T12:27:29.344Z,10.8
2023-04-27T12:28:29.326Z,8.9
2023-04-27T12:29:29.386Z,8.7
2023-04-27T12:30:29.662Z,9.0
2023-04-27T12:31:29.479Z,7.2
2023-04-27T12:32:29.688Z,5.6
2023-04-27T12:33:29.342Z,6.7
2023-04-27T12:34:29.302Z,8.2
2023-04-27T12:35:29.353Z,9.4
2023-04-27T12:36:29.398Z,12.8
2023-04-27T12:37:29.354Z,11.7
2023-04-27T12:38:29.558Z,10.1
2023-04-27T12:39:29.675Z,10.0
2023-04-27T12:40:29.311Z,14.4
2023-04-27T12:41:29.355Z,12.2
2023-04-27T12:42:29.325Z,13.0
2023-04-27T12:43:29.335Z,15.1
2023-04-27T12:44:29.370Z,11.8
2023-04-27T12:45:29.338Z,9.7
2023-04-27T12:46:29.411Z,9.0
2023-04-27T12:47:49.749Z,8.4
2023-04-27T12:48:29.471Z,12.0
2023-04-27T12:49:29.326Z,7.4
2023-04-27T12:50:29.378Z,7.4
2023-04-27T12:51:29.296Z,8.2
2023-04-27T12:52:29.506Z,6.9
2023-04-27T12:53:29.314Z,6.4
2023-04-27T12:54:29.331Z,8.0
2023-04-27T12:55:33.106Z,10.3
2023-04-27T12:56:29.313Z,8.1
2023-04-27T12:57:29.300Z,9.1
2023-04-27T12:58:29.373Z,7.1
2023-04-27T12:59:29.331Z,8.9
2023-04-27T13:00:29.333Z,7.8
2023-04-27T13:01:29.319Z,5.6
2023-04-27T13:02:29.417Z,8.1
2023-04-27T13:03:29.577Z,8.5
2023-04-27T13:04:29.463Z,9.4
2023-04-27T13:05:31.710Z,6.7
2023-04-27T13:06:29.252Z,11.2
2023-04-27T13:07:29.908Z,8.6
2023-04-27T13:08:29.904Z,6.1
2023-04-27T13:09:29.254Z,9.6
2023-04-27T13:10:29.339Z,8.5
2023-04-27T13:11:29.279Z,6.6
2023-04-27T13:12:29.305Z,7.6
2023-04-27T13:13:29.281Z,9.3
2023-04-27T13:14:29.456Z,15.8
2023-04-27T13:15:29.233Z,18.8
2023-04-27T13:16:29.315Z,12.1
2023-04-27T13:17:29.281Z,13.0
2023-04-27T13:18:29.276Z,17.2
2023-04-27T13:19:29.324Z,12.5
2023-04-27T13:20:29.332Z,11.9
2023-04-27T13:21:29.252Z,9.6
2023-04-27T13:22:29.460Z,14.4
2023-04-27T13:23:29.283Z,10.2
2023-04-27T13:24:29.304Z,11.8
2023-04-27T13:25:29.404Z,7.5
2023-04-27T13:26:29.270Z,8.3
2023-04-27T13:28:29.280Z,6.5
2023-04-27T13:29:29.261Z,7.8
2023-04-27T13:30:29.225Z,9.6
2023-04-27T13:31:29.429Z,6.1
2023-04-27T13:32:29.324Z,6.0
2023-04-27T13:33:29.277Z,8.5
2023-04-27T13:34:29.259Z,8.7
2023-04-27T13:35:29.303Z,7.6
2023-04-27T13:36:29.421Z,9.9
2023-04-27T13:37:29.240Z,7.8
2023-04-27T13:38:29.258Z,6.8
2023-04-27T13:39:29.223Z,7.1
2023-04-27T13:40:29.221Z,6.8
2023-04-27T13:41:29.230Z,6.2
2023-04-27T13:42:29.200Z,6.2
2023-04-27T13:43:29.237Z,8.1
2023-04-27T13:44:29.271Z,8.0
2023-04-27T13:45:29.218Z,8.5
2023-04-27T13:48:29.349Z,8.9
2023-04-27T13:49:29.172Z,7.8
2023-04-27T13:50:29.211Z,13.1
2023-04-27T13:51:29.242Z,10.8
2023-04-27T13:52:29.240Z,11.9
2023-04-27T13:53:29.235Z,7.0
2023-04-27T13:54:29.226Z,9.7
2023-04-27T13:55:29.210Z,7.7
2023-04-27T13:56:29.216Z,6.8
2023-04-27T13:57:29.230Z,10.1
2023-04-27T13:58:29.231Z,5.3
2023-04-27T13:59:29.211Z,6.5
2023-04-27T14:00:29.234Z,6.2
2023-04-27T14:01:29.291Z,5.5
2023-04-27T14:02:29.350Z,7.2
2023-04-27T14:03:29.349Z,6.7
2023-04-27T14:04:29.248Z,5.1
2023-04-27T14:05:52.435Z,7.7
2023-04-27T14:06:29.199Z,5.0
2023-04-27T14:07:29.226Z,19.9
2023-04-27T14:09:29.318Z,10.9
2023-04-27T14:10:29.343Z,8.2
2023-04-27T14:11:29.195Z,11.9
2023-04-27T14:12:29.180Z,6.2
2023-04-27T14:13:39.536Z,5.8
2023-04-27T14:14:29.216Z,4.3
2023-04-27T14:15:29.203Z,6.7
2023-04-27T14:16:29.250Z,6.0
2023-04-27T14:17:29.498Z,6.6